sensor_id;sensor_type;location;lat;lon;timestamp;temperature;humidity
6879;DHT22;3478;51.462;7.338;2022-09-16T00:02:16;13.50;99.90
6879;DHT22;3478;51.462;7.338;2022-09-16T00:07:17;13.50;99.90
6879;DHT22;3478;51.462;7.338;2022-09-16T00:12:21;13.60;99.90
6879;DHT22;3478;51.462;7.338;2022-09-16T00:17:23;13.60;99.90
6879;DHT22;3478;51.462;7.338;2022-09-16T00:22:27;13.60;99.90
6879;DHT22;3478;51.462;7.338;2022-09-16T00:27:30;13.60;99.90
6879;DHT22;3478;51.462;7.338;2022-09-16T00:32:32;13.60;99.90
6879;DHT22;3478;51.462;7.338;2022-09-16T00:37:34;13.60;99.90
6879;DHT22;3478;51.462;7.338;2022-09-16T00:42:38;13.50;99.90
6879;DHT22;3478;51.462;7.338;2022-09-16T00:47:43;13.50;99.90
6879;DHT22;3478;51.462;7.338;2022-09-16T00:52:47;13.50;99.90
6879;DHT22;3478;51.462;7.338;2022-09-16T00:57:52;13.40;99.90
6879;DHT22;3478;51.462;7.338;2022-09-16T01:02:55;13.40;99.90
6879;DHT22;3478;51.462;7.338;2022-09-16T01:07:57;13.40;99.90
6879;DHT22;3478;51.462;7.338;2022-09-16T01:13:03;13.40;99.90
6879;DHT22;3478;51.462;7.338;2022-09-16T01:18:13;13.30;99.90
6879;DHT22;3478;51.462;7.338;2022-09-16T01:29:24;13.40;99.90
6879;DHT22;3478;51.462;7.338;2022-09-16T01:34:39;13.40;99.90
6879;DHT22;3478;51.462;7.338;2022-09-16T01:39:48;13.20;99.90
6879;DHT22;3478;51.462;7.338;2022-09-16T01:45:02;13.20;99.90
6879;DHT22;3478;51.462;7.338;2022-09-16T01:50:15;13.20;99.90
6879;DHT22;3478;51.462;7.338;2022-09-16T01:55:22;13.20;99.90
6879;DHT22;3478;51.462;7.338;2022-09-16T02:00:27;13.20;99.90
6879;DHT22;3478;51.462;7.338;2022-09-16T02:05:32;13.20;99.90
6879;DHT22;3478;51.462;7.338;2022-09-16T02:10:39;13.10;99.90
6879;DHT22;3478;51.462;7.338;2022-09-16T02:15:44;13.20;99.90
6879;DHT22;3478;51.462;7.338;2022-09-16T02:20:50;13.20;99.90
6879;DHT22;3478;51.462;7.338;2022-09-16T02:25:54;13.20;99.90
6879;DHT22;3478;51.462;7.338;2022-09-16T02:30:58;13.20;99.90
6879;DHT22;3478;51.462;7.338;2022-09-16T02:36:04;13.20;99.90
6879;DHT22;3478;51.462;7.338;2022-09-16T02:41:08;13.30;99.90
6879;DHT22;3478;51.462;7.338;2022-09-16T02:46:21;13.20;99.90
6879;DHT22;3478;51.462;7.338;2022-09-16T02:51:32;13.20;99.90
6879;DHT22;3478;51.462;7.338;2022-09-16T02:56:39;13.30;99.90
6879;DHT22;3478;51.462;7.338;2022-09-16T03:01:43;13.20;99.90
6879;DHT22;3478;51.462;7.338;2022-09-16T03:06:47;13.20;99.90
6879;DHT22;3478;51.462;7.338;2022-09-16T03:12:13;13.20;99.90
6879;DHT22;3478;51.462;7.338;2022-09-16T03:17:26;13.10;99.90
6879;DHT22;3478;51.462;7.338;2022-09-16T03:22:41;13.10;99.90
6879;DHT22;3478;51.462;7.338;2022-09-16T03:27:48;13.00;99.90
6879;DHT22;3478;51.462;7.338;2022-09-16T03:32:55;13.00;99.90
6879;DHT22;3478;51.462;7.338;2022-09-16T03:37:59;12.90;99.90
6879;DHT22;3478;51.462;7.338;2022-09-16T03:43:09;12.90;99.90
6879;DHT22;3478;51.462;7.338;2022-09-16T03:48:12;12.90;99.90
6879;DHT22;3478;51.462;7.338;2022-09-16T03:53:16;12.90;99.90
6879;DHT22;3478;51.462;7.338;2022-09-16T03:58:18;12.80;99.90
6879;DHT22;3478;51.462;7.338;2022-09-16T04:03:20;12.90;99.90
6879;DHT22;3478;51.462;7.338;2022-09-16T04:08:23;12.90;99.90
6879;DHT22;3478;51.462;7.338;2022-09-16T04:13:27;12.80;99.90
6879;DHT22;3478;51.462;7.338;2022-09-16T04:18:30;12.80;99.90
6879;DHT22;3478;51.462;7.338;2022-09-16T04:23:33;12.80;99.90
6879;DHT22;3478;51.462;7.338;2022-09-16T04:28:35;12.70;99.90
6879;DHT22;3478;51.462;7.338;2022-09-16T04:33:37;12.80;99.90
6879;DHT22;3478;51.462;7.338;2022-09-16T04:38:42;12.80;99.90
6879;DHT22;3478;51.462;7.338;2022-09-16T04:43:45;12.80;99.90
6879;DHT22;3478;51.462;7.338;2022-09-16T04:48:47;12.70;99.90
6879;DHT22;3478;51.462;7.338;2022-09-16T04:53:50;12.70;99.90
6879;DHT22;3478;51.462;7.338;2022-09-16T04:58:54;12.70;99.90
6879;DHT22;3478;51.462;7.338;2022-09-16T05:03:58;12.70;99.90
6879;DHT22;3478;51.462;7.338;2022-09-16T05:09:02;12.70;99.90
6879;DHT22;3478;51.462;7.338;2022-09-16T05:14:06;12.70;99.90
6879;DHT22;3478;51.462;7.338;2022-09-16T05:19:10;12.70;99.90
6879;DHT22;3478;51.462;7.338;2022-09-16T05:24:13;12.70;99.90
6879;DHT22;3478;51.462;7.338;2022-09-16T05:29:16;12.80;99.90
6879;DHT22;3478;51.462;7.338;2022-09-16T05:34:20;12.80;99.90
6879;DHT22;3478;51.462;7.338;2022-09-16T05:39:24;12.80;99.90
6879;DHT22;3478;51.462;7.338;2022-09-16T05:44:26;12.90;99.90
6879;DHT22;3478;51.462;7.338;2022-09-16T05:49:29;12.90;99.90
6879;DHT22;3478;51.462;7.338;2022-09-16T05:54:32;12.80;99.90
6879;DHT22;3478;51.462;7.338;2022-09-16T05:59:34;12.70;99.90
6879;DHT22;3478;51.462;7.338;2022-09-16T06:04:36;12.80;99.90
6879;DHT22;3478;51.462;7.338;2022-09-16T06:09:39;12.80;99.90
6879;DHT22;3478;51.462;7.338;2022-09-16T06:14:41;12.80;99.90
6879;DHT22;3478;51.462;7.338;2022-09-16T06:19:43;13.00;99.90
6879;DHT22;3478;51.462;7.338;2022-09-16T06:24:46;13.20;99.90
6879;DHT22;3478;51.462;7.338;2022-09-16T06:29:49;13.30;99.90
6879;DHT22;3478;51.462;7.338;2022-09-16T06:34:51;13.30;99.90
6879;DHT22;3478;51.462;7.338;2022-09-16T06:39:55;13.20;99.90
6879;DHT22;3478;51.462;7.338;2022-09-16T06:44:57;13.20;99.90
6879;DHT22;3478;51.462;7.338;2022-09-16T06:49:59;13.20;99.90
6879;DHT22;3478;51.462;7.338;2022-09-16T06:55:02;13.20;99.90
6879;DHT22;3478;51.462;7.338;2022-09-16T07:00:06;13.30;99.90
6879;DHT22;3478;51.462;7.338;2022-09-16T07:05:08;13.30;99.90
6879;DHT22;3478;51.462;7.338;2022-09-16T07:10:13;13.50;99.90
6879;DHT22;3478;51.462;7.338;2022-09-16T07:15:15;13.70;99.90
6879;DHT22;3478;51.462;7.338;2022-09-16T07:20:16;13.80;99.90
6879;DHT22;3478;51.462;7.338;2022-09-16T07:25:20;13.80;99.90
6879;DHT22;3478;51.462;7.338;2022-09-16T07:30:21;13.70;99.90
6879;DHT22;3478;51.462;7.338;2022-09-16T07:35:23;14.00;99.90
6879;DHT22;3478;51.462;7.338;2022-09-16T07:40:26;14.00;99.90
6879;DHT22;3478;51.462;7.338;2022-09-16T07:45:28;13.90;99.90
6879;DHT22;3478;51.462;7.338;2022-09-16T07:50:30;14.00;99.90
6879;DHT22;3478;51.462;7.338;2022-09-16T07:55:35;13.80;99.90
6879;DHT22;3478;51.462;7.338;2022-09-16T08:00:37;14.00;99.90
6879;DHT22;3478;51.462;7.338;2022-09-16T08:05:38;14.20;99.90
6879;DHT22;3478;51.462;7.338;2022-09-16T08:10:42;14.20;99.90
6879;DHT22;3478;51.462;7.338;2022-09-16T08:15:44;14.20;99.90
6879;DHT22;3478;51.462;7.338;2022-09-16T08:20:45;14.40;99.90
6879;DHT22;3478;51.462;7.338;2022-09-16T08:25:55;14.70;99.90
6879;DHT22;3478;51.462;7.338;2022-09-16T08:30:58;14.80;99.90
6879;DHT22;3478;51.462;7.338;2022-09-16T08:36:01;14.70;99.90
6879;DHT22;3478;51.462;7.338;2022-09-16T08:41:17;15.00;99.90
6879;DHT22;3478;51.462;7.338;2022-09-16T08:46:29;15.10;99.90
6879;DHT22;3478;51.462;7.338;2022-09-16T08:51:35;15.10;99.90
6879;DHT22;3478;51.462;7.338;2022-09-16T08:56:38;15.10;99.90
6879;DHT22;3478;51.462;7.338;2022-09-16T09:01:46;15.20;99.90
6879;DHT22;3478;51.462;7.338;2022-09-16T09:06:57;15.40;99.90
6879;DHT22;3478;51.462;7.338;2022-09-16T09:12:05;15.60;99.90
6879;DHT22;3478;51.462;7.338;2022-09-16T09:17:14;15.70;99.90
6879;DHT22;3478;51.462;7.338;2022-09-16T09:22:26;15.50;99.90
6879;DHT22;3478;51.462;7.338;2022-09-16T09:27:48;15.30;99.90
6879;DHT22;3478;51.462;7.338;2022-09-16T09:33:08;15.20;99.90
6879;DHT22;3478;51.462;7.338;2022-09-16T09:38:33;15.40;99.90
6879;DHT22;3478;51.462;7.338;2022-09-16T09:43:42;15.10;99.90
6879;DHT22;3478;51.462;7.338;2022-09-16T09:48:49;14.90;99.90
6879;DHT22;3478;51.462;7.338;2022-09-16T09:53:57;14.70;99.90
6879;DHT22;3478;51.462;7.338;2022-09-16T09:59:11;14.50;99.90
6879;DHT22;3478;51.462;7.338;2022-09-16T10:04:15;14.50;99.90
6879;DHT22;3478;51.462;7.338;2022-09-16T10:09:18;14.60;99.90
6879;DHT22;3478;51.462;7.338;2022-09-16T10:14:29;14.50;99.90
6879;DHT22;3478;51.462;7.338;2022-09-16T10:19:35;14.70;99.90
6879;DHT22;3478;51.462;7.338;2022-09-16T10:24:40;15.60;99.90
6879;DHT22;3478;51.462;7.338;2022-09-16T10:29:44;16.00;99.90
6879;DHT22;3478;51.462;7.338;2022-09-16T10:34:46;16.80;99.90
6879;DHT22;3478;51.462;7.338;2022-09-16T10:39:50;17.00;99.90
6879;DHT22;3478;51.462;7.338;2022-09-16T10:44:57;17.10;99.90
6879;DHT22;3478;51.462;7.338;2022-09-16T10:50:04;17.10;99.90
6879;DHT22;3478;51.462;7.338;2022-09-16T10:55:20;16.90;99.90
6879;DHT22;3478;51.462;7.338;2022-09-16T11:00:25;16.90;99.90
6879;DHT22;3478;51.462;7.338;2022-09-16T11:05:34;17.60;99.90
6879;DHT22;3478;51.462;7.338;2022-09-16T11:10:42;17.80;99.90
6879;DHT22;3478;51.462;7.338;2022-09-16T11:15:58;17.50;99.90
6879;DHT22;3478;51.462;7.338;2022-09-16T11:26:54;18.30;99.90
6879;DHT22;3478;51.462;7.338;2022-09-16T11:32:07;17.80;99.90
6879;DHT22;3478;51.462;7.338;2022-09-16T11:37:18;19.30;99.90
6879;DHT22;3478;51.462;7.338;2022-09-16T11:42:28;19.90;98.70
6879;DHT22;3478;51.462;7.338;2022-09-16T11:47:46;19.00;99.70
6879;DHT22;3478;51.462;7.338;2022-09-16T11:58:27;18.60;99.90
6879;DHT22;3478;51.462;7.338;2022-09-16T12:03:38;19.40;97.80
6879;DHT22;3478;51.462;7.338;2022-09-16T12:08:51;19.90;96.30
6879;DHT22;3478;51.462;7.338;2022-09-16T12:13:59;19.00;96.70
6879;DHT22;3478;51.462;7.338;2022-09-16T12:19:12;18.40;96.20
6879;DHT22;3478;51.462;7.338;2022-09-16T12:24:21;17.60;99.50
6879;DHT22;3478;51.462;7.338;2022-09-16T12:29:28;16.40;99.90
6879;DHT22;3478;51.462;7.338;2022-09-16T12:34:37;15.50;99.90
6879;DHT22;3478;51.462;7.338;2022-09-16T12:39:40;15.00;99.90
6879;DHT22;3478;51.462;7.338;2022-09-16T12:44:56;16.60;99.90
6879;DHT22;3478;51.462;7.338;2022-09-16T12:50:37;18.90;99.90
6879;DHT22;3478;51.462;7.338;2022-09-16T12:55:53;18.30;99.90
6879;DHT22;3478;51.462;7.338;2022-09-16T13:01:12;16.90;99.90
6879;DHT22;3478;51.462;7.338;2022-09-16T13:06:22;15.80;99.90
6879;DHT22;3478;51.462;7.338;2022-09-16T13:11:27;14.70;99.90
6879;DHT22;3478;51.462;7.338;2022-09-16T13:16:31;14.20;99.90
6879;DHT22;3478;51.462;7.338;2022-09-16T13:21:39;13.70;99.90
6879;DHT22;3478;51.462;7.338;2022-09-16T13:26:44;13.60;99.90
6879;DHT22;3478;51.462;7.338;2022-09-16T13:31:47;13.40;99.90
6879;DHT22;3478;51.462;7.338;2022-09-16T13:36:50;13.30;99.90
6879;DHT22;3478;51.462;7.338;2022-09-16T13:41:52;13.20;99.90
6879;DHT22;3478;51.462;7.338;2022-09-16T13:47:05;13.00;99.90
6879;DHT22;3478;51.462;7.338;2022-09-16T13:52:10;12.60;99.90
6879;DHT22;3478;51.462;7.338;2022-09-16T14:03:02;12.50;99.90
6879;DHT22;3478;51.462;7.338;2022-09-16T14:08:15;12.40;99.90
6879;DHT22;3478;51.462;7.338;2022-09-16T14:13:20;12.40;99.90
6879;DHT22;3478;51.462;7.338;2022-09-16T14:18:25;12.50;99.90
6879;DHT22;3478;51.462;7.338;2022-09-16T14:23:31;12.70;99.90
6879;DHT22;3478;51.462;7.338;2022-09-16T14:28:33;13.10;99.90
6879;DHT22;3478;51.462;7.338;2022-09-16T14:33:39;15.40;99.90
6879;DHT22;3478;51.462;7.338;2022-09-16T14:38:46;17.70;99.90
6879;DHT22;3478;51.462;7.338;2022-09-16T14:43:50;19.40;99.90
6879;DHT22;3478;51.462;7.338;2022-09-16T14:48:54;20.50;99.90
6879;DHT22;3478;51.462;7.338;2022-09-16T14:53:58;21.60;99.90
6879;DHT22;3478;51.462;7.338;2022-09-16T14:59:00;21.90;99.90
6879;DHT22;3478;51.462;7.338;2022-09-16T15:04:05;22.40;99.90
6879;DHT22;3478;51.462;7.338;2022-09-16T15:09:14;22.40;99.90
6879;DHT22;3478;51.462;7.338;2022-09-16T15:14:17;23.00;99.90
6879;DHT22;3478;51.462;7.338;2022-09-16T15:19:22;23.50;99.90
6879;DHT22;3478;51.462;7.338;2022-09-16T15:24:28;23.40;99.90
6879;DHT22;3478;51.462;7.338;2022-09-16T15:29:32;22.50;99.90
6879;DHT22;3478;51.462;7.338;2022-09-16T15:34:34;22.60;99.90
6879;DHT22;3478;51.462;7.338;2022-09-16T15:39:38;20.50;99.90
6879;DHT22;3478;51.462;7.338;2022-09-16T15:44:45;19.10;99.90
6879;DHT22;3478;51.462;7.338;2022-09-16T15:49:49;17.80;99.90
6879;DHT22;3478;51.462;7.338;2022-09-16T15:54:57;16.80;99.90
6879;DHT22;3478;51.462;7.338;2022-09-16T16:00:03;15.80;99.90
6879;DHT22;3478;51.462;7.338;2022-09-16T16:05:14;15.40;99.90
6879;DHT22;3478;51.462;7.338;2022-09-16T16:10:19;15.30;99.90
6879;DHT22;3478;51.462;7.338;2022-09-16T16:15:24;15.20;99.90
6879;DHT22;3478;51.462;7.338;2022-09-16T16:20:27;13.80;99.90
6879;DHT22;3478;51.462;7.338;2022-09-16T16:25:33;12.90;99.90
6879;DHT22;3478;51.462;7.338;2022-09-16T16:30:35;12.70;99.90
6879;DHT22;3478;51.462;7.338;2022-09-16T16:35:38;12.70;99.90
6879;DHT22;3478;51.462;7.338;2022-09-16T16:40:49;13.30;99.90
6879;DHT22;3478;51.462;7.338;2022-09-16T16:45:55;14.20;99.90
6879;DHT22;3478;51.462;7.338;2022-09-16T16:50:59;14.00;99.90
6879;DHT22;3478;51.462;7.338;2022-09-16T16:56:04;13.50;99.90
6879;DHT22;3478;51.462;7.338;2022-09-16T17:01:07;13.00;99.90
6879;DHT22;3478;51.462;7.338;2022-09-16T17:06:10;12.80;99.90
6879;DHT22;3478;51.462;7.338;2022-09-16T17:11:15;12.70;99.90
6879;DHT22;3478;51.462;7.338;2022-09-16T17:16:19;12.80;99.90
6879;DHT22;3478;51.462;7.338;2022-09-16T17:21:23;12.80;99.90
6879;DHT22;3478;51.462;7.338;2022-09-16T17:26:27;12.70;99.90
6879;DHT22;3478;51.462;7.338;2022-09-16T17:31:30;12.60;99.90
6879;DHT22;3478;51.462;7.338;2022-09-16T17:36:34;12.50;99.90
6879;DHT22;3478;51.462;7.338;2022-09-16T17:41:37;12.40;99.90
6879;DHT22;3478;51.462;7.338;2022-09-16T17:46:40;12.30;99.90
6879;DHT22;3478;51.462;7.338;2022-09-16T17:51:43;12.20;99.90
6879;DHT22;3478;51.462;7.338;2022-09-16T17:56:46;12.10;99.90
6879;DHT22;3478;51.462;7.338;2022-09-16T18:01:48;12.10;99.90
6879;DHT22;3478;51.462;7.338;2022-09-16T18:06:50;12.10;99.90
6879;DHT22;3478;51.462;7.338;2022-09-16T18:11:53;12.10;99.90
6879;DHT22;3478;51.462;7.338;2022-09-16T18:16:57;12.10;99.90
6879;DHT22;3478;51.462;7.338;2022-09-16T18:22:00;12.20;99.90
6879;DHT22;3478;51.462;7.338;2022-09-16T18:27:04;12.20;99.90
6879;DHT22;3478;51.462;7.338;2022-09-16T18:32:07;12.30;99.90
6879;DHT22;3478;51.462;7.338;2022-09-16T18:37:08;12.30;99.90
6879;DHT22;3478;51.462;7.338;2022-09-16T18:42:12;12.30;99.90
6879;DHT22;3478;51.462;7.338;2022-09-16T18:47:13;12.20;99.90
6879;DHT22;3478;51.462;7.338;2022-09-16T18:52:15;12.20;99.90
6879;DHT22;3478;51.462;7.338;2022-09-16T18:57:18;12.10;99.90
6879;DHT22;3478;51.462;7.338;2022-09-16T19:02:23;12.10;99.90
6879;DHT22;3478;51.462;7.338;2022-09-16T19:07:24;12.00;99.90
6879;DHT22;3478;51.462;7.338;2022-09-16T19:12:28;12.00;99.90
6879;DHT22;3478;51.462;7.338;2022-09-16T19:17:30;11.90;99.90
6879;DHT22;3478;51.462;7.338;2022-09-16T19:22:32;11.90;99.90
6879;DHT22;3478;51.462;7.338;2022-09-16T19:27:38;12.10;99.90
6879;DHT22;3478;51.462;7.338;2022-09-16T19:32:40;12.10;99.90
6879;DHT22;3478;51.462;7.338;2022-09-16T19:37:42;12.20;99.90
6879;DHT22;3478;51.462;7.338;2022-09-16T19:42:46;12.20;99.90
6879;DHT22;3478;51.462;7.338;2022-09-16T19:47:48;12.20;99.90
6879;DHT22;3478;51.462;7.338;2022-09-16T19:52:50;12.30;99.90
6879;DHT22;3478;51.462;7.338;2022-09-16T19:57:53;12.30;99.90
6879;DHT22;3478;51.462;7.338;2022-09-16T20:02:55;12.30;99.90
6879;DHT22;3478;51.462;7.338;2022-09-16T20:07:57;12.30;99.90
6879;DHT22;3478;51.462;7.338;2022-09-16T20:13:00;12.20;99.90
6879;DHT22;3478;51.462;7.338;2022-09-16T20:18:02;12.10;99.90
6879;DHT22;3478;51.462;7.338;2022-09-16T20:23:04;12.00;99.90
6879;DHT22;3478;51.462;7.338;2022-09-16T20:28:08;12.00;99.90
6879;DHT22;3478;51.462;7.338;2022-09-16T20:33:11;12.00;99.90
6879;DHT22;3478;51.462;7.338;2022-09-16T20:38:13;12.10;99.90
6879;DHT22;3478;51.462;7.338;2022-09-16T20:43:16;12.10;99.90
6879;DHT22;3478;51.462;7.338;2022-09-16T20:48:19;12.00;99.90
6879;DHT22;3478;51.462;7.338;2022-09-16T20:53:21;11.90;99.90
6879;DHT22;3478;51.462;7.338;2022-09-16T20:58:24;11.80;99.90
6879;DHT22;3478;51.462;7.338;2022-09-16T21:03:26;11.80;99.90
6879;DHT22;3478;51.462;7.338;2022-09-16T21:08:28;11.70;99.90
6879;DHT22;3478;51.462;7.338;2022-09-16T21:13:32;11.70;99.90
6879;DHT22;3478;51.462;7.338;2022-09-16T21:18:34;11.70;99.90
6879;DHT22;3478;51.462;7.338;2022-09-16T21:23:36;11.60;99.90
6879;DHT22;3478;51.462;7.338;2022-09-16T21:28:39;11.70;99.90
6879;DHT22;3478;51.462;7.338;2022-09-16T21:33:42;11.60;99.90
6879;DHT22;3478;51.462;7.338;2022-09-16T21:38:45;11.60;99.90
6879;DHT22;3478;51.462;7.338;2022-09-16T21:43:50;11.60;99.90
6879;DHT22;3478;51.462;7.338;2022-09-16T21:48:56;11.60;99.90
6879;DHT22;3478;51.462;7.338;2022-09-16T21:54:00;11.50;99.90
6879;DHT22;3478;51.462;7.338;2022-09-16T21:59:04;11.60;99.90
6879;DHT22;3478;51.462;7.338;2022-09-16T22:04:12;11.50;99.90
6879;DHT22;3478;51.462;7.338;2022-09-16T22:09:15;11.50;99.90
6879;DHT22;3478;51.462;7.338;2022-09-16T22:14:18;11.40;99.90
6879;DHT22;3478;51.462;7.338;2022-09-16T22:19:20;11.40;99.90
6879;DHT22;3478;51.462;7.338;2022-09-16T22:24:22;11.50;99.90
6879;DHT22;3478;51.462;7.338;2022-09-16T22:29:25;11.40;99.90
6879;DHT22;3478;51.462;7.338;2022-09-16T22:34:27;11.30;99.90
6879;DHT22;3478;51.462;7.338;2022-09-16T22:39:29;11.30;99.90
6879;DHT22;3478;51.462;7.338;2022-09-16T22:44:32;11.30;99.90
6879;DHT22;3478;51.462;7.338;2022-09-16T22:49:34;11.40;99.90
6879;DHT22;3478;51.462;7.338;2022-09-16T22:54:36;11.40;99.90
6879;DHT22;3478;51.462;7.338;2022-09-16T22:59:39;11.40;99.90
6879;DHT22;3478;51.462;7.338;2022-09-16T23:04:41;11.30;99.90
6879;DHT22;3478;51.462;7.338;2022-09-16T23:09:43;11.30;99.90
6879;DHT22;3478;51.462;7.338;2022-09-16T23:14:46;11.40;99.90
6879;DHT22;3478;51.462;7.338;2022-09-16T23:19:48;11.40;99.90
6879;DHT22;3478;51.462;7.338;2022-09-16T23:24:50;11.30;99.90
6879;DHT22;3478;51.462;7.338;2022-09-16T23:29:53;11.40;99.90
6879;DHT22;3478;51.462;7.338;2022-09-16T23:34:55;11.30;99.90
6879;DHT22;3478;51.462;7.338;2022-09-16T23:39:57;11.30;99.90
6879;DHT22;3478;51.462;7.338;2022-09-16T23:45:01;11.30;99.90
6879;DHT22;3478;51.462;7.338;2022-09-16T23:50:04;11.30;99.90
6879;DHT22;3478;51.462;7.338;2022-09-16T23:55:07;11.20;99.90
